createdAt,value
2023-11-07T00:00:08.749Z,5.90
2023-11-07T00:02:37.094Z,5.80
2023-11-07T00:05:05.203Z,5.40
2023-11-07T00:07:32.824Z,5.20
2023-11-07T00:10:00.427Z,6.00
2023-11-07T00:12:28.016Z,5.70
2023-11-07T00:14:55.637Z,5.80
2023-11-07T00:17:23.220Z,5.90
2023-11-07T00:19:50.831Z,6.00
2023-11-07T00:22:18.387Z,6.60
2023-11-07T00:24:46.622Z,5.30
2023-11-07T00:27:14.730Z,6.20
2023-11-07T00:29:42.241Z,5.40
2023-11-07T00:32:09.739Z,6.00
2023-11-07T00:34:37.485Z,5.60
2023-11-07T00:37:05.015Z,5.30
2023-11-07T00:39:32.534Z,5.60
2023-11-07T00:42:00.154Z,5.00
2023-11-07T00:44:27.799Z,5.70
2023-11-07T00:46:55.336Z,5.90
2023-11-07T00:49:23.022Z,6.00
2023-11-07T00:51:50.548Z,6.60
2023-11-07T00:54:18.132Z,6.40
2023-11-07T00:56:45.745Z,6.70
2023-11-07T00:59:13.657Z,6.80
2023-11-07T01:01:42.072Z,7.10
2023-11-07T01:04:09.867Z,7.30
2023-11-07T01:06:37.674Z,6.20
2023-11-07T01:09:05.635Z,6.80
2023-11-07T01:11:33.441Z,6.40
2023-11-07T01:14:01.060Z,6.80
2023-11-07T01:16:28.579Z,5.70
2023-11-07T01:18:56.896Z,5.80
2023-11-07T01:21:25.101Z,5.80
2023-11-07T01:23:52.631Z,5.60
2023-11-07T01:26:20.302Z,5.50
2023-11-07T01:28:47.792Z,5.90
2023-11-07T01:31:15.277Z,6.00
2023-11-07T01:33:43.544Z,6.90
2023-11-07T01:36:12.010Z,6.70
2023-11-07T01:38:39.623Z,5.90
2023-11-07T01:41:07.240Z,5.60
2023-11-07T01:43:34.780Z,5.80
2023-11-07T01:46:04.273Z,5.80
2023-11-07T01:48:32.243Z,5.10
2023-11-07T01:50:59.981Z,4.70
2023-11-07T01:53:27.527Z,4.30
2023-11-07T01:55:55.298Z,3.60
2023-11-07T01:58:23.128Z,3.90
2023-11-07T02:00:50.775Z,3.80
2023-11-07T02:03:18.506Z,3.90
2023-11-07T02:05:46.249Z,4.40
2023-11-07T02:08:13.776Z,4.00
2023-11-07T02:10:42.294Z,4.40
2023-11-07T02:13:09.792Z,4.10
2023-11-07T02:15:39.457Z,4.20
2023-11-07T02:18:07.876Z,4.60
2023-11-07T02:20:39.860Z,4.40
2023-11-07T02:23:11.453Z,5.30
2023-11-07T02:25:40.271Z,4.80
2023-11-07T02:28:08.560Z,6.10
2023-11-07T02:30:36.210Z,6.10
2023-11-07T02:33:06.212Z,5.70
2023-11-07T02:35:34.763Z,6.10
2023-11-07T02:38:02.352Z,5.90
2023-11-07T02:40:29.878Z,6.20
2023-11-07T02:42:57.516Z,5.80
2023-11-07T02:45:25.164Z,5.90
2023-11-07T02:47:52.860Z,5.50
2023-11-07T02:50:20.457Z,5.00
2023-11-07T02:52:48.051Z,5.50
2023-11-07T02:55:15.845Z,6.10
2023-11-07T02:57:43.386Z,5.20
2023-11-07T03:00:11.692Z,5.50
2023-11-07T03:02:39.453Z,5.90
2023-11-07T03:05:07.574Z,4.80
2023-11-07T03:07:35.298Z,5.00
2023-11-07T03:10:03.032Z,4.90
2023-11-07T03:12:30.714Z,4.70
2023-11-07T03:14:58.480Z,5.00
2023-11-07T03:17:26.278Z,4.20
2023-11-07T03:19:54.666Z,4.30
2023-11-07T03:22:22.742Z,4.00
2023-11-07T03:24:50.384Z,4.00
2023-11-07T03:27:18.118Z,3.50
2023-11-07T03:29:45.736Z,3.50
2023-11-07T03:32:13.256Z,4.00
2023-11-07T03:34:41.374Z,4.20
2023-11-07T03:37:09.021Z,4.80
2023-11-07T03:39:36.710Z,4.40
2023-11-07T03:42:06.257Z,4.50
2023-11-07T03:44:36.193Z,4.50
2023-11-07T03:47:06.344Z,4.50
2023-11-07T03:49:34.110Z,5.10
2023-11-07T03:52:01.734Z,5.60
2023-11-07T03:54:29.369Z,6.00
2023-11-07T03:56:57.016Z,5.40
2023-11-07T03:59:24.572Z,6.60
2023-11-07T04:01:53.343Z,5.90
2023-11-07T04:04:21.692Z,6.40
2023-11-07T04:06:52.226Z,6.60
2023-11-07T04:09:20.386Z,6.00
2023-11-07T04:11:48.091Z,6.60
2023-11-07T04:14:19.336Z,7.10
2023-11-07T04:16:46.881Z,6.80
2023-11-07T04:19:14.532Z,7.40
2023-11-07T04:21:42.157Z,6.10
2023-11-07T04:24:09.884Z,6.30
2023-11-07T04:26:37.457Z,5.90
2023-11-07T04:29:05.727Z,5.90
2023-11-07T04:31:34.362Z,5.40
2023-11-07T04:34:02.334Z,5.30
2023-11-07T04:36:30.092Z,5.50
2023-11-07T04:38:57.796Z,5.30
2023-11-07T04:41:25.879Z,5.10
2023-11-07T04:43:54.309Z,5.70
2023-11-07T04:46:21.949Z,6.20
2023-11-07T04:48:49.643Z,5.80
2023-11-07T04:51:19.033Z,6.00
2023-11-07T04:53:46.646Z,6.50
2023-11-07T04:56:14.199Z,6.00
2023-11-07T04:58:56.615Z,5.90
2023-11-07T05:03:55.322Z,5.70
2023-11-07T05:06:23.263Z,6.80
2023-11-07T05:08:52.584Z,7.20
2023-11-07T05:11:20.410Z,7.00
2023-11-07T05:13:47.917Z,6.30
2023-11-07T05:16:15.518Z,5.80
2023-11-07T05:18:43.340Z,5.70
2023-11-07T05:21:11.241Z,5.00
2023-11-07T05:23:39.364Z,4.60
2023-11-07T05:26:07.652Z,5.40
2023-11-07T05:28:35.171Z,4.90
2023-11-07T05:31:02.724Z,5.60
2023-11-07T05:33:30.455Z,5.70
2023-11-07T05:35:58.085Z,4.90
2023-11-07T05:38:25.717Z,4.60
2023-11-07T05:40:53.249Z,4.40
2023-11-07T05:43:20.838Z,4.50
2023-11-07T05:45:48.413Z,4.00
2023-11-07T05:48:16.131Z,3.60
2023-11-07T05:50:43.986Z,3.50
2023-11-07T05:53:11.513Z,3.40
2023-11-07T05:55:39.209Z,3.10
2023-11-07T05:58:08.548Z,2.70
2023-11-07T06:00:36.277Z,3.00
2023-11-07T06:03:04.127Z,3.30
2023-11-07T06:05:31.791Z,3.40
2023-11-07T06:08:00.767Z,3.10
2023-11-07T06:10:28.507Z,3.40
2023-11-07T06:12:56.078Z,3.20
2023-11-07T06:15:25.224Z,3.00
2023-11-07T06:17:52.873Z,3.00
2023-11-07T06:20:23.214Z,4.00
2023-11-07T06:22:52.103Z,4.00
2023-11-07T06:25:20.645Z,3.80
2023-11-07T06:27:52.549Z,3.50
2023-11-07T06:30:21.020Z,3.90
2023-11-07T06:32:48.634Z,3.40
2023-11-07T06:35:16.258Z,3.30
2023-11-07T06:37:43.954Z,4.50
2023-11-07T06:40:19.557Z,3.80
2023-11-07T06:42:47.823Z,3.50
2023-11-07T06:45:15.412Z,3.40
2023-11-07T06:47:43.851Z,4.30
2023-11-07T06:50:12.238Z,4.30
2023-11-07T06:52:40.808Z,4.80
2023-11-07T06:55:10.466Z,4.70
2023-11-07T06:57:38.073Z,4.60
2023-11-07T07:00:10.892Z,4.50
2023-11-07T07:02:40.167Z,4.70
2023-11-07T07:05:14.897Z,4.90
2023-11-07T07:07:43.090Z,4.60
2023-11-07T07:10:12.087Z,5.30
2023-11-07T07:12:39.847Z,4.70
2023-11-07T07:15:07.676Z,6.20
2023-11-07T07:17:36.851Z,5.20
2023-11-07T07:20:12.737Z,5.70
2023-11-07T07:22:43.045Z,5.60
2023-11-07T07:25:17.014Z,6.10
2023-11-07T07:27:48.655Z,6.60
2023-11-07T07:30:23.459Z,6.80
2023-11-07T07:32:52.224Z,5.30
2023-11-07T07:35:22.673Z,5.60
2023-11-07T07:37:54.132Z,5.40
2023-11-07T07:40:27.668Z,5.20
2023-11-07T07:43:12.916Z,5.80
2023-11-07T07:45:44.395Z,6.80
2023-11-07T07:48:12.703Z,6.60
2023-11-07T07:50:44.256Z,6.50
2023-11-07T07:53:16.678Z,6.70
2023-11-07T07:55:45.243Z,6.60
2023-11-07T07:58:13.078Z,5.50
2023-11-07T08:00:41.424Z,5.90
2023-11-07T08:03:10.490Z,5.40
2023-11-07T08:05:42.649Z,5.30
2023-11-07T08:08:11.154Z,5.50
2023-11-07T08:10:39.434Z,5.30
2023-11-07T08:13:08.972Z,4.40
2023-11-07T08:15:37.426Z,5.60
2023-11-07T08:18:09.399Z,5.70
2023-11-07T08:20:39.784Z,5.10
2023-11-07T08:23:07.914Z,6.60
2023-11-07T08:25:35.954Z,6.60
2023-11-07T08:28:11.186Z,6.80
2023-11-07T08:30:39.424Z,6.70
2023-11-07T08:33:09.178Z,6.80
2023-11-07T08:35:40.243Z,5.70
2023-11-07T08:38:07.980Z,5.20
2023-11-07T08:43:23.001Z,3.40
2023-11-07T08:45:51.357Z,3.70
2023-11-07T08:48:19.024Z,3.40
2023-11-07T08:50:47.216Z,3.60
2023-11-07T08:53:14.999Z,3.80
2023-11-07T08:55:42.592Z,4.30
2023-11-07T08:58:10.242Z,3.90
2023-11-07T09:00:37.753Z,4.90
2023-11-07T09:03:05.645Z,4.90
2023-11-07T09:05:33.856Z,18.70
2023-11-07T09:08:04.191Z,5.80
2023-11-07T09:10:33.175Z,6.50
2023-11-07T09:13:00.765Z,6.00
2023-11-07T09:15:28.334Z,2.90
2023-11-07T09:17:56.159Z,3.40
2023-11-07T09:20:23.873Z,2.70
2023-11-07T09:22:51.447Z,2.20
2023-11-07T09:25:19.112Z,1.90
2023-11-07T09:27:48.426Z,1.90
2023-11-07T09:30:16.541Z,1.60
2023-11-07T09:32:45.425Z,1.90
2023-11-07T09:35:13.232Z,3.20
2023-11-07T09:37:41.482Z,1.80
2023-11-07T09:40:22.257Z,1.60
2023-11-07T09:42:52.741Z,2.00
2023-11-07T09:45:20.676Z,1.90
2023-11-07T09:47:49.403Z,1.80
2023-11-07T09:50:17.911Z,2.20
2023-11-07T09:52:46.064Z,2.20
2023-11-07T09:55:16.438Z,19.00
2023-11-07T09:57:48.532Z,2.70
2023-11-07T10:00:25.400Z,1.90
2023-11-07T10:02:54.171Z,1.90
2023-11-07T10:05:22.462Z,1.50
2023-11-07T10:07:50.975Z,1.70
2023-11-07T10:10:18.728Z,1.70
2023-11-07T10:12:48.612Z,1.80
2023-11-07T10:15:26.835Z,1.80
2023-11-07T10:18:01.884Z,2.50
2023-11-07T10:20:31.015Z,2.60
2023-11-07T10:22:59.312Z,2.50
2023-11-07T10:25:30.893Z,2.50
2023-11-07T10:28:02.984Z,2.10
2023-11-07T10:30:37.128Z,1.60
2023-11-07T10:33:08.303Z,2.20
2023-11-07T10:35:53.264Z,1.90
2023-11-07T10:38:21.145Z,2.60
2023-11-07T10:40:49.426Z,1.70
2023-11-07T10:43:36.590Z,2.20
2023-11-07T10:46:04.665Z,53.90
2023-11-07T10:48:40.299Z,2.40
2023-11-07T10:51:09.518Z,2.00
2023-11-07T10:53:40.242Z,2.00
2023-11-07T10:56:20.554Z,2.60
2023-11-07T10:58:50.190Z,2.10
2023-11-07T11:01:17.795Z,2.30
2023-11-07T11:03:45.915Z,2.00
2023-11-07T11:06:16.124Z,1.90
2023-11-07T11:08:45.046Z,2.40
2023-11-07T11:11:15.406Z,2.20
2023-11-07T11:13:43.381Z,1.70
2023-11-07T11:16:11.192Z,1.90
2023-11-07T11:18:46.517Z,2.20
2023-11-07T11:21:18.250Z,1.90
2023-11-07T11:23:46.960Z,5.00
2023-11-07T11:26:17.767Z,2.00
2023-11-07T11:28:45.370Z,1.60
2023-11-07T11:31:16.364Z,2.10
2023-11-07T11:33:44.626Z,2.10
2023-11-07T11:36:31.348Z,1.70
2023-11-07T11:38:59.050Z,1.50
2023-11-07T11:41:47.935Z,2.20
2023-11-07T11:44:16.533Z,1.80
2023-11-07T11:46:45.311Z,2.20
2023-11-07T11:49:18.131Z,2.90
2023-11-07T11:51:47.617Z,2.90
2023-11-07T11:54:15.871Z,3.10
2023-11-07T11:56:49.904Z,2.10
2023-11-07T11:59:42.554Z,1.40
2023-11-07T12:02:10.150Z,1.40
2023-11-07T12:04:38.173Z,1.80
2023-11-07T12:07:09.718Z,1.50
2023-11-07T12:09:38.261Z,2.20
2023-11-07T12:12:06.203Z,1.40
2023-11-07T12:14:33.931Z,1.50
2023-11-07T12:17:01.630Z,1.80
2023-11-07T12:19:30.137Z,2.90
2023-11-07T12:21:58.460Z,2.60
2023-11-07T12:24:26.630Z,2.70
2023-11-07T12:26:54.295Z,2.90
2023-11-07T12:29:31.405Z,1.90
2023-11-07T12:31:58.952Z,1.70
2023-11-07T12:34:33.553Z,2.80
2023-11-07T12:37:04.927Z,1.90
2023-11-07T12:39:33.180Z,2.00
2023-11-07T12:42:01.362Z,3.30
2023-11-07T12:44:28.985Z,3.40
2023-11-07T12:46:56.686Z,3.40
2023-11-07T12:49:24.780Z,4.20
2023-11-07T12:51:52.415Z,4.00
2023-11-07T12:54:27.563Z,4.00
2023-11-07T12:56:55.711Z,2.70
2023-11-07T12:59:23.271Z,3.50
2023-11-07T13:01:50.850Z,3.80
2023-11-07T13:04:19.360Z,3.40
2023-11-07T13:06:53.757Z,2.20
2023-11-07T13:09:32.684Z,2.40
2023-11-07T13:12:10.775Z,2.00
2023-11-07T13:14:39.400Z,3.10
2023-11-07T13:17:08.911Z,2.40
2023-11-07T13:19:36.814Z,2.30
2023-11-07T13:22:05.237Z,2.40
2023-11-07T13:24:32.914Z,2.90
2023-11-07T13:27:00.734Z,2.50
2023-11-07T13:29:28.687Z,3.10
2023-11-07T13:31:57.654Z,1.90
2023-11-07T13:34:27.925Z,1.80
2023-11-07T13:37:04.438Z,2.20
2023-11-07T13:39:34.201Z,2.10
2023-11-07T13:42:01.973Z,3.00
2023-11-07T13:44:29.655Z,2.40
2023-11-07T13:46:57.405Z,2.20
2023-11-07T13:49:24.996Z,2.40
2023-11-07T13:51:52.530Z,2.20
2023-11-07T13:54:20.371Z,1.80
2023-11-07T13:56:47.937Z,2.50
2023-11-07T13:59:15.547Z,2.10
2023-11-07T14:01:44.355Z,2.40
2023-11-07T14:04:12.831Z,6.60
2023-11-07T14:06:40.515Z,3.30
2023-11-07T14:09:10.110Z,2.00
2023-11-07T14:11:38.081Z,2.00
2023-11-07T14:14:06.716Z,2.50
2023-11-07T14:16:34.453Z,2.20
2023-11-07T14:19:06.168Z,2.20
2023-11-07T14:21:34.959Z,3.40
2023-11-07T14:24:03.207Z,4.30
2023-11-07T14:26:31.221Z,3.50
2023-11-07T14:29:02.565Z,3.90
2023-11-07T14:31:32.318Z,3.80
2023-11-07T14:34:00.482Z,5.00
2023-11-07T14:36:28.515Z,6.00
2023-11-07T14:38:56.221Z,4.80
2023-11-07T14:41:25.113Z,6.20
2023-11-07T14:43:52.667Z,12.30
2023-11-07T14:46:21.304Z,6.70
2023-11-07T14:48:49.127Z,6.00
2023-11-07T14:51:18.665Z,5.30
2023-11-07T14:53:46.380Z,5.20
2023-11-07T14:56:14.868Z,6.80
2023-11-07T14:58:42.472Z,5.30
2023-11-07T15:01:13.683Z,5.40
2023-11-07T15:03:41.357Z,6.60
2023-11-07T15:06:11.236Z,8.30
2023-11-07T15:08:39.604Z,11.00
2023-11-07T15:11:07.202Z,15.50
2023-11-07T15:13:34.702Z,15.90
2023-11-07T15:16:03.248Z,16.10
2023-11-07T15:18:32.251Z,14.50
2023-11-07T15:20:59.937Z,12.30
2023-11-07T15:23:27.550Z,11.50
2023-11-07T15:25:55.561Z,10.20
2023-11-07T15:28:23.127Z,9.00
2023-11-07T15:30:50.725Z,7.10
2023-11-07T15:33:18.402Z,6.90
2023-11-07T15:35:46.111Z,7.50
2023-11-07T15:38:14.494Z,8.20
2023-11-07T15:40:42.536Z,8.40
2023-11-07T15:43:10.518Z,13.60
2023-11-07T15:45:38.512Z,10.90
2023-11-07T15:48:09.659Z,9.90
2023-11-07T15:50:37.948Z,9.70
2023-11-07T15:53:08.695Z,10.00
2023-11-07T15:55:38.251Z,10.30
2023-11-07T15:58:06.147Z,10.00
2023-11-07T16:00:34.149Z,9.60
2023-11-07T16:03:02.015Z,9.90
2023-11-07T16:05:34.190Z,10.00
2023-11-07T16:08:02.242Z,11.20
2023-11-07T16:10:32.848Z,12.00
2023-11-07T16:13:00.716Z,9.80
2023-11-07T16:15:28.282Z,10.20
2023-11-07T16:17:56.144Z,9.10
2023-11-07T16:20:24.406Z,9.30
2023-11-07T16:22:52.053Z,8.50
2023-11-07T16:25:20.331Z,8.10
2023-11-07T16:27:48.300Z,7.80
2023-11-07T16:30:17.742Z,7.90
2023-11-07T16:32:45.581Z,8.20
2023-11-07T16:35:14.685Z,8.50
2023-11-07T16:37:43.403Z,8.90
2023-11-07T16:40:13.244Z,9.30
2023-11-07T16:42:45.598Z,9.40
2023-11-07T16:45:16.024Z,11.30
2023-11-07T16:47:44.444Z,12.50
2023-11-07T16:50:12.479Z,13.70
2023-11-07T16:52:41.355Z,11.80
2023-11-07T16:55:18.935Z,10.60
2023-11-07T16:57:46.594Z,9.30
2023-11-07T17:00:14.580Z,7.70
2023-11-07T17:02:42.505Z,8.70
2023-11-07T17:05:10.406Z,8.00
2023-11-07T17:07:38.112Z,7.80
2023-11-07T17:10:08.393Z,8.80
2023-11-07T17:12:36.317Z,9.70
2023-11-07T17:15:04.412Z,9.80
2023-11-07T17:17:32.098Z,10.70
2023-11-07T17:19:59.859Z,11.20
2023-11-07T17:22:27.385Z,10.60
2023-11-07T17:24:54.939Z,8.80
2023-11-07T17:27:24.510Z,7.60
2023-11-07T17:29:52.358Z,6.30
2023-11-07T17:32:20.829Z,6.00
2023-11-07T17:34:48.429Z,5.50
2023-11-07T17:37:16.073Z,5.50
2023-11-07T17:39:43.682Z,5.30
2023-11-07T17:42:11.310Z,4.80
2023-11-07T17:44:39.359Z,5.40
2023-11-07T17:47:07.014Z,6.10
2023-11-07T17:49:34.634Z,5.00
2023-11-07T17:52:02.165Z,4.70
2023-11-07T17:54:29.756Z,4.20
2023-11-07T17:56:57.599Z,4.50
2023-11-07T17:59:25.476Z,4.30
2023-11-07T18:01:54.239Z,4.80
2023-11-07T18:04:22.130Z,4.50
2023-11-07T18:06:49.731Z,13.20
2023-11-07T18:09:17.334Z,6.20
2023-11-07T18:11:46.614Z,5.50
2023-11-07T18:14:15.498Z,6.00
2023-11-07T18:16:46.309Z,6.10
2023-11-07T18:19:15.095Z,7.40
2023-11-07T18:21:46.085Z,7.20
2023-11-07T18:24:13.786Z,8.40
2023-11-07T18:26:47.654Z,9.50
2023-11-07T18:29:15.440Z,10.70
2023-11-07T18:31:43.039Z,11.30
2023-11-07T18:34:20.450Z,11.00
2023-11-07T18:37:00.685Z,11.40
2023-11-07T18:39:29.076Z,11.50
2023-11-07T18:41:56.950Z,11.40
2023-11-07T18:44:24.628Z,11.40
2023-11-07T18:46:52.735Z,11.30
2023-11-07T18:49:20.428Z,10.50
2023-11-07T18:51:48.746Z,10.60
2023-11-07T18:54:16.686Z,9.40
2023-11-07T18:56:48.147Z,8.80
2023-11-07T18:59:27.748Z,8.90
2023-11-07T19:02:01.935Z,9.10
2023-11-07T19:04:29.832Z,8.30
2023-11-07T19:06:57.579Z,8.30
2023-11-07T19:09:26.484Z,9.30
2023-11-07T19:11:54.092Z,9.10
2023-11-07T19:14:21.765Z,12.30
2023-11-07T19:16:51.325Z,9.30
2023-11-07T19:19:18.904Z,10.20
2023-11-07T19:21:46.473Z,9.70
2023-11-07T19:24:17.930Z,10.00
2023-11-07T19:26:45.666Z,10.10
2023-11-07T19:29:14.954Z,10.00
2023-11-07T19:31:42.617Z,11.50
2023-11-07T19:34:10.294Z,13.60
2023-11-07T19:36:40.952Z,11.70
2023-11-07T19:39:08.820Z,11.80
2023-11-07T19:41:37.944Z,12.20
2023-11-07T19:44:05.900Z,12.60
2023-11-07T19:46:33.992Z,15.30
2023-11-07T19:49:01.790Z,14.40
2023-11-07T19:51:29.530Z,13.10
2023-11-07T19:53:57.110Z,14.00
2023-11-07T19:56:24.725Z,7.70
2023-11-07T19:58:59.667Z,9.40
2023-11-07T20:01:28.371Z,10.50
2023-11-07T20:03:57.899Z,6.20
2023-11-07T20:06:25.968Z,4.70
2023-11-07T20:08:54.981Z,7.50
2023-11-07T20:11:22.659Z,9.00
2023-11-07T20:13:50.272Z,10.20
2023-11-07T20:16:19.310Z,10.10
2023-11-07T20:18:47.005Z,10.90
2023-11-07T20:21:16.292Z,11.70
2023-11-07T20:23:44.127Z,11.80
2023-11-07T20:26:12.200Z,11.60
2023-11-07T20:28:39.942Z,11.70
2023-11-07T20:31:08.859Z,9.60
2023-11-07T20:33:44.573Z,9.20
2023-11-07T20:36:20.050Z,6.80
2023-11-07T20:38:48.436Z,10.60
2023-11-07T20:41:20.227Z,13.90
2023-11-07T20:43:48.137Z,19.90
2023-11-07T20:46:31.132Z,17.30
2023-11-07T20:49:03.818Z,13.80
2023-11-07T20:51:33.039Z,11.10
2023-11-07T20:54:00.728Z,25.30
2023-11-07T20:56:30.731Z,23.40
2023-11-07T21:09:07.653Z,32.90
2023-11-07T21:11:35.274Z,29.10
2023-11-07T21:14:02.771Z,52.10
2023-11-07T21:16:30.327Z,96.80
2023-11-07T21:19:00.153Z,108.20
2023-11-07T21:21:27.912Z,59.20
2023-11-07T21:23:55.791Z,48.00
2023-11-07T21:26:24.566Z,43.80
2023-11-07T21:28:53.775Z,26.00
2023-11-07T21:31:21.722Z,23.40
2023-11-07T21:33:49.349Z,24.50
2023-11-07T21:36:17.151Z,24.20
2023-11-07T21:38:44.928Z,22.10
2023-11-07T21:41:12.534Z,23.30
2023-11-07T21:43:40.106Z,25.00
2023-11-07T21:46:08.665Z,22.60
2023-11-07T21:48:36.304Z,20.50
2023-11-07T21:51:04.045Z,22.90
2023-11-07T21:53:31.699Z,40.70
2023-11-07T21:55:59.227Z,36.40
2023-11-07T21:58:26.690Z,38.90
2023-11-07T22:00:54.271Z,57.60
2023-11-07T22:03:21.954Z,54.90
2023-11-07T22:05:49.468Z,45.90
2023-11-07T22:08:17.113Z,34.50
2023-11-07T22:10:44.678Z,25.80
2023-11-07T22:13:12.159Z,29.20
2023-11-07T22:15:40.383Z,31.40
2023-11-07T22:18:09.984Z,41.10
2023-11-07T22:20:39.443Z,43.20
2023-11-07T22:23:07.007Z,34.50
2023-11-07T22:25:34.529Z,34.80
2023-11-07T22:28:02.155Z,51.20
2023-11-07T22:30:29.673Z,63.20
2023-11-07T22:32:57.298Z,80.70
2023-11-07T22:35:24.922Z,82.20
2023-11-07T22:37:52.441Z,88.50
2023-11-07T22:40:20.150Z,103.90
2023-11-07T22:42:47.836Z,125.10
2023-11-07T22:45:19.472Z,115.60
2023-11-07T22:47:47.528Z,100.60
2023-11-07T22:50:15.226Z,78.40
2023-11-07T22:52:45.766Z,44.50
2023-11-07T22:55:14.423Z,35.30
2023-11-07T22:57:42.064Z,37.90
2023-11-07T23:00:12.199Z,36.60
2023-11-07T23:02:40.844Z,34.80
2023-11-07T23:05:08.882Z,35.40
2023-11-07T23:07:36.435Z,28.30
2023-11-07T23:10:04.139Z,37.80
2023-11-07T23:12:31.736Z,29.50
2023-11-07T23:14:59.282Z,18.70
2023-11-07T23:17:28.388Z,26.30
2023-11-07T23:19:56.090Z,34.50
2023-11-07T23:22:23.628Z,25.90
2023-11-07T23:24:51.168Z,15.50
2023-11-07T23:27:18.791Z,11.30
2023-11-07T23:29:46.300Z,12.70
2023-11-07T23:32:13.866Z,21.20
2023-11-07T23:34:41.520Z,30.90
2023-11-07T23:37:09.744Z,50.20
2023-11-07T23:39:37.393Z,78.50
2023-11-07T23:42:05.169Z,89.10
2023-11-07T23:44:33.173Z,80.20
2023-11-07T23:47:00.813Z,67.20
2023-11-07T23:49:28.394Z,63.60
2023-11-07T23:51:56.169Z,60.50
2023-11-07T23:54:24.247Z,56.00
2023-11-07T23:56:52.125Z,43.60
2023-11-07T23:59:19.653Z,36.20
